Terre Haute Regional (HUF)

 

Airport Diagram
Current Weather/Forecast (VFR Conditions)
METAR KHUF 280553Z 32007KT 10SM CLR M06/M07 A3049 RMK AO2 SLP332 60000 T10561072 11033 21056 51021 $
TAF KHUF 280520Z 2806/2906 34006KT P6SM SCT025 TEMPO 2806/2807 BKN025 FM280700 34006KT P6SM SCT035

Airport Information

All Charts
General
Chart Name View
AIRPORT DIAGRAM
AIRPORT DIAGRAM
TAKEOFF MINIMUMS
ALTERNATE MINIMUMS
RADAR MINIMUMS
TAKEOFF MINIMUMS
ALTERNATE MINIMUMS
RADAR MINIMUMS
LAHSO
LAHSO

Approaches
Chart Name Download
ILS OR LOC RWY 05
RNAV (GPS) RWY 05
RNAV (GPS) RWY 14
RNAV (GPS) RWY 23
RNAV (GPS) RWY 32
VOR RWY 05
VOR RWY 23
ILS OR LOC RWY 05
RNAV (GPS) RWY 05
RNAV (GPS) RWY 14
RNAV (GPS) RWY 23
RNAV (GPS) RWY 32
VOR RWY 05
VOR RWY 23


Airport Statistics
Departures Arrivals Local
All Collected Stats since June 2016: 80 67 64
2021 Stats: 0 2 0
January Stats: 0 2 0

Inbound Traffic (Arrivals) - 0

No inbound traffic.


Outbound Traffic (Departures) - 0

No outbound traffic.


Local Traffic (Pattern) - 0

No local traffic.